createdAt,value
2023-01-11T00:01:53.513Z,82.28
2023-01-11T00:04:21.146Z,82.07
2023-01-11T00:06:48.463Z,81.59
2023-01-11T00:09:16.109Z,80.85
2023-01-11T00:11:43.312Z,81.87
2023-01-11T00:14:10.718Z,82.50
2023-01-11T00:16:37.980Z,82.51
2023-01-11T00:19:05.314Z,83.13
2023-01-11T00:21:32.692Z,83.30
2023-01-11T00:24:00.040Z,83.16
2023-01-11T00:26:27.346Z,82.41
2023-01-11T00:28:54.781Z,83.21
2023-01-11T00:31:22.299Z,82.95
2023-01-11T00:33:49.634Z,82.69
2023-01-11T00:36:16.814Z,83.62
2023-01-11T00:38:44.214Z,83.43
2023-01-11T00:41:32.164Z,83.06
2023-01-11T00:44:18.067Z,82.30
2023-01-11T00:47:03.756Z,83.31
2023-01-11T00:49:31.189Z,83.37
2023-01-11T00:51:58.390Z,83.33
2023-01-11T00:54:25.742Z,83.32
2023-01-11T00:56:52.993Z,82.97
2023-01-11T00:59:20.285Z,83.94
2023-01-11T01:01:47.692Z,83.85
2023-01-11T01:04:14.953Z,83.74
2023-01-11T01:06:42.227Z,84.28
2023-01-11T01:09:09.603Z,84.37
2023-01-11T01:11:37.118Z,84.14
2023-01-11T01:14:22.863Z,84.35
2023-01-11T01:16:50.095Z,84.93
2023-01-11T01:19:17.378Z,84.45
2023-01-11T01:21:44.611Z,85.41
2023-01-11T01:24:11.924Z,86.11
2023-01-11T01:26:39.357Z,85.54
2023-01-11T01:29:07.305Z,85.86
2023-01-11T01:31:34.554Z,84.39
2023-01-11T01:34:01.889Z,84.04
2023-01-11T01:36:29.131Z,84.72
2023-01-11T01:38:56.288Z,85.32
2023-01-11T01:41:23.621Z,86.25
2023-01-11T01:43:51.977Z,87.11
2023-01-11T01:46:20.475Z,85.83
2023-01-11T01:48:53.966Z,86.40
2023-01-11T01:51:26.090Z,85.89
2023-01-11T01:53:56.881Z,86.75
2023-01-11T01:56:51.822Z,86.29
2023-01-11T01:59:20.455Z,86.61
2023-01-11T02:01:48.310Z,87.16
2023-01-11T02:04:23.646Z,86.41
2023-01-11T02:06:55.079Z,85.90
2023-01-11T02:09:29.456Z,85.42
2023-01-11T02:11:57.548Z,84.88
2023-01-11T02:14:25.103Z,84.88
2023-01-11T02:16:52.369Z,86.94
2023-01-11T02:19:24.281Z,86.96
2023-01-11T02:22:12.124Z,86.08
2023-01-11T02:25:01.578Z,87.32
2023-01-11T02:27:44.007Z,87.17
2023-01-11T02:30:21.024Z,86.94
2023-01-11T02:32:53.969Z,85.46
2023-01-11T02:35:40.659Z,85.04
2023-01-11T02:38:24.312Z,85.02
2023-01-11T02:41:08.117Z,83.91
2023-01-11T02:44:08.525Z,84.29
2023-01-11T02:46:41.683Z,83.25
2023-01-11T02:49:17.358Z,83.77
2023-01-11T02:51:58.744Z,84.97
2023-01-11T02:54:26.745Z,83.99
2023-01-11T02:56:57.313Z,84.54
2023-01-11T02:59:30.468Z,85.54
2023-01-11T03:01:58.014Z,85.31
2023-01-11T03:04:29.894Z,84.78
2023-01-11T03:07:21.833Z,84.80
2023-01-11T03:10:07.155Z,84.85
2023-01-11T03:12:52.130Z,85.49
2023-01-11T03:16:08.609Z,84.74
2023-01-11T03:19:18.895Z,84.45
2023-01-11T03:22:04.747Z,84.88
2023-01-11T03:24:43.700Z,84.05
2023-01-11T03:27:22.454Z,84.24
2023-01-11T03:29:53.739Z,84.35
2023-01-11T03:32:36.943Z,83.91
2023-01-11T03:35:28.345Z,84.62
2023-01-11T03:38:11.660Z,85.44
2023-01-11T03:40:46.790Z,85.55
2023-01-11T03:43:15.287Z,85.43
2023-01-11T03:45:50.425Z,86.70
2023-01-11T03:48:21.129Z,85.61
2023-01-11T03:50:49.803Z,85.33
2023-01-11T03:53:18.703Z,85.99
2023-01-11T03:55:48.400Z,86.98
2023-01-11T03:58:15.776Z,87.44
2023-01-11T04:00:43.108Z,88.35
2023-01-11T04:03:12.612Z,87.62
2023-01-11T04:05:43.693Z,87.25
2023-01-11T04:08:11.480Z,87.01
2023-01-11T04:10:39.406Z,87.19
2023-01-11T04:13:06.631Z,87.67
2023-01-11T04:15:34.798Z,86.84
2023-01-11T04:18:05.823Z,87.12
2023-01-11T04:20:39.271Z,87.07
2023-01-11T04:23:08.251Z,87.52
2023-01-11T04:25:35.457Z,86.60
2023-01-11T04:28:02.657Z,86.57
2023-01-11T04:30:29.945Z,86.42
2023-01-11T04:33:00.589Z,86.66
2023-01-11T04:35:27.799Z,87.47
2023-01-11T04:37:56.261Z,88.09
2023-01-11T04:40:24.871Z,87.12
2023-01-11T04:42:52.399Z,88.48
2023-01-11T04:45:19.795Z,88.35
2023-01-11T04:47:48.778Z,88.16
2023-01-11T04:50:16.088Z,88.13
2023-01-11T04:52:43.332Z,89.13
2023-01-11T04:55:10.488Z,88.84
2023-01-11T04:57:37.820Z,87.17
2023-01-11T05:00:10.618Z,89.60
2023-01-11T05:02:39.359Z,89.94
2023-01-11T05:05:07.521Z,90.56
2023-01-11T05:07:34.789Z,89.43
2023-01-11T05:10:02.682Z,88.51
2023-01-11T05:12:30.001Z,88.61
2023-01-11T05:14:57.201Z,90.06
2023-01-11T05:17:24.508Z,88.91
2023-01-11T05:19:51.742Z,89.59
2023-01-11T05:22:18.959Z,89.53
2023-01-11T05:24:46.271Z,90.43
2023-01-11T05:27:13.870Z,93.87
2023-01-11T05:29:41.126Z,98.07
2023-01-11T05:32:08.612Z,100.00
2023-01-11T05:34:35.940Z,100.00
2023-01-11T05:37:03.246Z,100.00
2023-01-11T05:39:30.506Z,97.17
2023-01-11T05:41:57.880Z,95.71
2023-01-11T05:44:43.751Z,93.07
2023-01-11T05:47:11.091Z,90.13
2023-01-11T05:49:38.320Z,95.21
2023-01-11T05:52:05.738Z,96.69
2023-01-11T05:54:33.003Z,93.06
2023-01-11T05:57:00.281Z,92.09
2023-01-11T05:59:27.549Z,92.06
2023-01-11T06:01:54.900Z,94.43
2023-01-11T06:04:22.286Z,92.12
2023-01-11T06:06:49.767Z,92.38
2023-01-11T06:09:17.057Z,89.21
2023-01-11T06:11:44.401Z,92.14
2023-01-11T06:14:11.716Z,91.78
2023-01-11T06:16:39.383Z,90.73
2023-01-11T06:19:07.141Z,87.08
2023-01-11T06:21:35.596Z,86.02
2023-01-11T06:24:02.872Z,85.69
2023-01-11T06:26:30.121Z,85.23
2023-01-11T06:28:57.352Z,83.86
2023-01-11T06:31:24.669Z,82.77
2023-01-11T06:33:51.949Z,82.29
2023-01-11T06:36:19.420Z,83.02
2023-01-11T06:38:46.784Z,80.89
2023-01-11T06:41:14.123Z,80.74
2023-01-11T06:43:42.149Z,81.36
2023-01-11T06:46:11.978Z,81.11
2023-01-11T06:48:39.750Z,82.52
2023-01-11T06:51:07.151Z,82.96
2023-01-11T06:53:34.454Z,82.71
2023-01-11T06:56:01.963Z,81.32
2023-01-11T06:58:29.575Z,81.33
2023-01-11T07:00:57.916Z,80.37
2023-01-11T07:03:25.852Z,80.42
2023-01-11T07:05:53.990Z,80.64
2023-01-11T07:08:21.382Z,79.84
2023-01-11T07:10:48.849Z,80.02
2023-01-11T07:13:17.271Z,79.59
2023-01-11T07:15:45.947Z,80.30
2023-01-11T07:18:13.283Z,82.26
2023-01-11T07:20:41.178Z,82.54
2023-01-11T07:23:08.540Z,81.58
2023-01-11T07:25:36.435Z,82.75
2023-01-11T07:28:06.474Z,82.59
2023-01-11T07:30:47.902Z,83.84
2023-01-11T07:33:23.425Z,85.72
2023-01-11T07:35:50.687Z,81.70
2023-01-11T07:38:17.926Z,84.40
2023-01-11T07:40:45.160Z,83.37
2023-01-11T07:43:15.765Z,85.16
2023-01-11T07:45:50.798Z,86.83
2023-01-11T07:48:21.391Z,84.74
2023-01-11T07:50:49.218Z,84.02
2023-01-11T07:53:16.673Z,83.99
2023-01-11T07:55:44.266Z,83.99
2023-01-11T07:58:12.758Z,84.50
2023-01-11T08:00:43.369Z,81.29
2023-01-11T08:03:11.027Z,82.16
2023-01-11T08:05:38.538Z,83.68
2023-01-11T08:08:06.388Z,82.58
2023-01-11T08:10:34.232Z,82.29
2023-01-11T08:13:20.814Z,81.44
2023-01-11T08:15:48.179Z,82.85
2023-01-11T08:18:17.101Z,84.23
2023-01-11T08:20:45.697Z,86.62
2023-01-11T08:23:13.096Z,84.38
2023-01-11T08:25:40.463Z,84.40
2023-01-11T08:28:07.822Z,83.47
2023-01-11T08:30:36.183Z,85.90
2023-01-11T08:33:05.121Z,85.20
2023-01-11T08:35:36.960Z,83.85
2023-01-11T08:38:04.225Z,82.88
2023-01-11T08:40:31.563Z,81.75
2023-01-11T08:42:59.052Z,80.75
2023-01-11T08:45:26.567Z,80.29
2023-01-11T08:47:54.476Z,81.38
2023-01-11T08:50:22.530Z,80.49
2023-01-11T08:52:51.329Z,81.11
2023-01-11T08:55:19.784Z,81.35
2023-01-11T08:57:47.249Z,80.24
2023-01-11T09:00:15.279Z,78.99
2023-01-11T09:02:42.861Z,78.61
2023-01-11T09:05:10.260Z,81.15
2023-01-11T09:07:37.709Z,79.53
2023-01-11T09:10:05.750Z,80.12
2023-01-11T09:12:33.091Z,81.23
2023-01-11T09:15:00.650Z,77.82
2023-01-11T09:17:28.006Z,80.00
2023-01-11T09:19:55.356Z,77.46
2023-01-11T09:22:22.980Z,74.87
2023-01-11T09:24:50.396Z,79.36
2023-01-11T09:27:17.687Z,79.03
2023-01-11T09:29:46.104Z,78.25
2023-01-11T09:32:13.484Z,77.98
2023-01-11T09:34:42.881Z,76.95
2023-01-11T09:37:10.290Z,77.20
2023-01-11T09:39:39.135Z,77.80
2023-01-11T09:42:06.957Z,78.29
2023-01-11T09:44:45.887Z,77.16
2023-01-11T09:47:31.893Z,77.00
2023-01-11T09:50:03.777Z,75.24
2023-01-11T09:52:39.777Z,78.88
2023-01-11T09:55:15.223Z,77.28
2023-01-11T09:58:03.267Z,71.22
2023-01-11T10:00:49.328Z,73.60
2023-01-11T10:03:39.956Z,76.27
2023-01-11T10:06:18.483Z,75.66
2023-01-11T10:18:29.667Z,75.36
2023-01-11T10:18:39.289Z,76.13
2023-01-11T10:20:46.755Z,74.67
2023-01-11T10:23:28.683Z,75.23
2023-01-11T10:25:58.944Z,74.18
2023-01-11T10:28:46.133Z,72.83
2023-01-11T10:31:44.959Z,74.74
2023-01-11T10:34:38.740Z,75.01
2023-01-11T10:37:22.652Z,74.69
2023-01-11T10:40:25.247Z,71.30
2023-01-11T10:43:12.956Z,73.47
2023-01-11T10:45:44.620Z,75.71
2023-01-11T10:48:24.662Z,74.42
2023-01-11T10:51:32.083Z,71.16
2023-01-11T10:54:14.401Z,74.87
2023-01-11T10:57:02.669Z,73.73
2023-01-11T10:59:50.948Z,74.79
2023-01-11T11:02:38.578Z,74.62
2023-01-11T11:05:11.809Z,71.69
2023-01-11T11:08:14.687Z,72.11
2023-01-11T11:10:57.442Z,73.40
2023-01-11T11:13:37.685Z,75.59
2023-01-11T11:16:19.972Z,73.36
2023-01-11T11:18:50.790Z,72.15
2023-01-11T11:21:24.116Z,76.34
2023-01-11T11:24:04.225Z,74.93
2023-01-11T11:26:38.208Z,72.31
2023-01-11T11:29:08.107Z,71.41
2023-01-11T11:31:43.042Z,70.90
2023-01-11T11:34:16.559Z,71.08
2023-01-11T11:36:46.212Z,72.51
2023-01-11T11:39:29.905Z,75.10
2023-01-11T11:42:05.640Z,75.15
2023-01-11T11:44:33.143Z,75.00
2023-01-11T11:47:01.623Z,69.57
2023-01-11T11:49:39.798Z,70.70
2023-01-11T11:52:07.842Z,72.92
2023-01-11T11:54:37.529Z,70.61
2023-01-11T11:57:15.157Z,72.14
2023-01-11T11:59:47.937Z,67.51
2023-01-11T12:02:36.499Z,69.91
2023-01-11T12:05:09.609Z,68.71
2023-01-11T12:07:54.335Z,68.37
2023-01-11T12:10:25.325Z,69.23
2023-01-11T12:12:59.470Z,68.13
2023-01-11T12:15:31.440Z,68.01
2023-01-11T12:18:22.265Z,69.65
2023-01-11T12:20:49.533Z,65.48
2023-01-11T12:23:24.055Z,66.69
2023-01-11T12:26:25.168Z,68.02
2023-01-11T12:29:14.367Z,66.25
2023-01-11T12:31:50.727Z,66.98
2023-01-11T12:34:55.476Z,64.47
2023-01-11T12:37:53.919Z,66.41
2023-01-11T12:40:35.286Z,65.41
2023-01-11T12:43:36.729Z,65.09
2023-01-11T12:46:16.973Z,65.13
2023-01-11T12:49:20.823Z,65.51
2023-01-11T12:52:39.188Z,64.92
2023-01-11T12:55:41.427Z,64.08
2023-01-11T12:58:18.168Z,61.93
2023-01-11T13:00:52.378Z,63.87
2023-01-11T13:03:29.630Z,62.17
2023-01-11T13:06:08.809Z,61.34
2023-01-11T13:08:48.945Z,61.86
2023-01-11T13:11:35.302Z,64.17
2023-01-11T13:14:14.987Z,61.16
2023-01-11T13:17:20.131Z,62.43
2023-01-11T13:19:53.387Z,61.59
2023-01-11T13:22:24.895Z,60.27
2023-01-11T13:24:53.019Z,61.42
2023-01-11T13:27:25.202Z,61.43
2023-01-11T13:29:55.861Z,63.67
2023-01-11T13:32:25.211Z,59.65
2023-01-11T13:34:52.519Z,58.68
2023-01-11T13:37:24.261Z,60.39
2023-01-11T13:40:03.844Z,62.78
2023-01-11T13:42:35.795Z,60.13
2023-01-11T13:45:19.138Z,60.42
2023-01-11T13:47:57.108Z,58.59
2023-01-11T13:50:31.293Z,58.16
2023-01-11T13:53:09.923Z,58.08
2023-01-11T13:55:45.406Z,58.42
2023-01-11T13:58:25.527Z,59.35
2023-01-11T14:00:54.668Z,58.38
2023-01-11T14:03:31.166Z,58.93
2023-01-11T14:06:07.491Z,59.04
2023-01-11T14:08:43.598Z,60.01
2023-01-11T14:11:20.395Z,58.43
2023-01-11T14:14:18.176Z,58.52
2023-01-11T14:16:48.206Z,56.90
2023-01-11T14:19:37.607Z,58.45
2023-01-11T14:22:23.598Z,57.41
2023-01-11T14:25:15.417Z,58.32
2023-01-11T14:28:10.515Z,58.55
2023-01-11T14:30:46.533Z,59.38
2023-01-11T14:33:31.882Z,57.17
2023-01-11T14:36:05.169Z,56.69
2023-01-11T14:38:44.648Z,56.17
2023-01-11T14:41:39.892Z,57.41
2023-01-11T14:44:25.343Z,58.46
2023-01-11T14:46:52.652Z,58.73
2023-01-11T14:49:44.857Z,58.89
2023-01-11T14:52:16.006Z,55.68
2023-01-11T14:54:48.067Z,55.44
2023-01-11T14:57:40.587Z,57.29
2023-01-11T15:00:19.869Z,55.97
2023-01-11T15:02:51.570Z,57.46
2023-01-11T15:05:31.257Z,57.24
2023-01-11T15:08:12.952Z,56.70
2023-01-11T15:10:56.820Z,55.37
2023-01-11T15:13:29.666Z,56.79
2023-01-11T15:16:28.971Z,55.55
2023-01-11T15:18:56.395Z,55.65
2023-01-11T15:21:25.389Z,56.75
2023-01-11T15:23:54.929Z,56.91
2023-01-11T15:26:24.299Z,54.67
2023-01-11T15:28:52.322Z,55.12
2023-01-11T15:31:49.600Z,55.15
2023-01-11T15:34:47.877Z,57.93
2023-01-11T15:37:28.796Z,56.27
2023-01-11T15:40:04.778Z,56.67
2023-01-11T15:43:02.572Z,56.80
2023-01-11T15:46:16.302Z,56.11
2023-01-11T15:49:21.552Z,58.45
2023-01-11T15:51:57.858Z,57.88
2023-01-11T15:54:31.539Z,56.34
2023-01-11T15:57:27.077Z,56.57
2023-01-11T16:00:00.223Z,58.11
2023-01-11T16:02:54.686Z,58.75
2023-01-11T16:05:27.086Z,58.73
2023-01-11T16:07:54.307Z,58.26
2023-01-11T16:10:45.004Z,57.89
2023-01-11T16:13:34.769Z,57.98
2023-01-11T16:16:17.453Z,60.52
2023-01-11T16:18:48.953Z,59.76
2023-01-11T16:21:21.508Z,59.29
2023-01-11T16:23:49.046Z,59.81
2023-01-11T16:26:18.201Z,58.75
2023-01-11T16:28:54.545Z,60.47
2023-01-11T16:31:21.984Z,59.24
2023-01-11T16:33:49.934Z,59.76
2023-01-11T16:36:22.448Z,59.88
2023-01-11T16:38:55.444Z,60.13
2023-01-11T16:41:24.132Z,60.99
2023-01-11T16:44:00.594Z,60.53
2023-01-11T16:46:46.328Z,60.87
2023-01-11T16:49:17.951Z,59.15
2023-01-11T16:51:45.575Z,59.81
2023-01-11T16:54:33.311Z,59.19
2023-01-11T16:57:01.648Z,59.68
2023-01-11T16:59:34.887Z,60.62
2023-01-11T17:02:06.178Z,60.92
2023-01-11T17:04:34.564Z,60.17
2023-01-11T17:07:19.863Z,59.86
2023-01-11T17:09:47.424Z,59.45
2023-01-11T17:12:21.543Z,61.17
2023-01-11T17:14:58.935Z,61.68
2023-01-11T17:17:27.874Z,60.48
2023-01-11T17:19:56.547Z,60.98
2023-01-11T17:22:29.545Z,60.30
2023-01-11T17:25:00.013Z,62.14
2023-01-11T17:27:35.589Z,61.05
2023-01-11T17:30:05.175Z,61.72
2023-01-11T17:32:44.584Z,60.73
2023-01-11T17:35:23.424Z,61.72
2023-01-11T17:37:53.382Z,61.25
2023-01-11T17:40:22.783Z,61.28
2023-01-11T17:43:09.306Z,61.42
2023-01-11T17:45:37.414Z,61.13
2023-01-11T17:48:15.804Z,62.49
2023-01-11T17:50:48.371Z,61.29
2023-01-11T17:53:18.495Z,60.93
2023-01-11T17:55:52.057Z,61.51
2023-01-11T17:58:38.268Z,60.72
2023-01-11T18:01:08.243Z,61.03
2023-01-11T18:03:42.484Z,61.68
2023-01-11T18:06:14.546Z,61.94
2023-01-11T18:08:47.505Z,61.25
2023-01-11T18:11:26.226Z,61.34
2023-01-11T18:13:55.766Z,61.91
2023-01-11T18:16:23.468Z,61.74
2023-01-11T18:18:52.104Z,61.97
2023-01-11T18:21:25.482Z,61.98
2023-01-11T18:24:15.771Z,61.62
2023-01-11T18:26:43.894Z,61.80
2023-01-11T18:29:37.232Z,62.14
2023-01-11T18:32:12.065Z,63.06
2023-01-11T18:34:39.955Z,62.75
2023-01-11T18:37:07.351Z,62.03
2023-01-11T18:39:35.529Z,62.46
2023-01-11T18:42:08.214Z,62.92
2023-01-11T18:44:39.900Z,62.92
2023-01-11T18:47:21.017Z,63.12
2023-01-11T18:49:49.861Z,62.71
2023-01-11T18:52:18.569Z,62.58
2023-01-11T18:54:45.930Z,62.66
2023-01-11T18:57:13.252Z,62.64
2023-01-11T18:59:40.608Z,63.05
2023-01-11T19:02:23.953Z,63.02
2023-01-11T19:04:52.556Z,62.38
2023-01-11T19:07:20.200Z,63.49
2023-01-11T19:09:47.716Z,64.09
2023-01-11T19:12:15.903Z,63.64
2023-01-11T19:14:43.378Z,62.95
2023-01-11T19:17:11.298Z,62.76
2023-01-11T19:19:38.565Z,62.79
2023-01-11T19:22:06.323Z,63.51
2023-01-11T19:24:33.669Z,62.83
2023-01-11T19:27:01.739Z,64.83
2023-01-11T19:29:29.079Z,63.70
2023-01-11T19:31:56.407Z,63.92
2023-01-11T19:34:24.398Z,63.51
2023-01-11T19:36:51.988Z,63.75
2023-01-11T19:39:19.713Z,64.13
2023-01-11T19:42:01.411Z,63.66
2023-01-11T19:44:33.773Z,63.33
2023-01-11T19:47:11.554Z,63.40
2023-01-11T19:49:40.671Z,63.52
2023-01-11T19:52:18.978Z,64.34
2023-01-11T19:54:46.963Z,63.65
2023-01-11T19:57:18.774Z,63.62
2023-01-11T19:59:47.115Z,63.08
2023-01-11T20:02:17.067Z,64.12
2023-01-11T20:04:44.476Z,64.34
2023-01-11T20:07:12.624Z,63.63
2023-01-11T20:09:39.956Z,65.39
2023-01-11T20:12:09.187Z,64.92
2023-01-11T20:14:38.271Z,63.21
2023-01-11T20:17:05.573Z,64.34
2023-01-11T20:19:32.844Z,63.93
2023-01-11T20:22:00.119Z,64.14
2023-01-11T20:24:30.452Z,64.90
2023-01-11T20:26:59.201Z,66.11
2023-01-11T20:29:26.665Z,67.07
2023-01-11T20:31:53.958Z,65.00
2023-01-11T20:34:21.425Z,65.01
2023-01-11T20:36:49.049Z,65.38
2023-01-11T20:39:17.516Z,65.16
2023-01-11T20:41:47.721Z,65.40
2023-01-11T20:44:16.078Z,65.89
2023-01-11T20:46:46.271Z,65.44
2023-01-11T20:49:15.164Z,65.42
2023-01-11T20:51:42.943Z,66.06
2023-01-11T20:54:10.736Z,65.84
2023-01-11T20:56:38.736Z,65.35
2023-01-11T20:59:07.356Z,65.59
2023-01-11T21:01:36.262Z,65.81
2023-01-11T21:04:08.902Z,62.88
2023-01-11T21:06:38.993Z,64.25
2023-01-11T21:09:07.772Z,65.25
2023-01-11T21:11:35.691Z,66.01
2023-01-11T21:14:04.417Z,68.18
2023-01-11T21:16:32.338Z,67.00
2023-01-11T21:19:01.630Z,66.33
2023-01-11T21:21:31.007Z,66.25
2023-01-11T21:24:00.507Z,66.37
2023-01-11T21:26:29.138Z,66.80
2023-01-11T21:29:01.397Z,66.58
2023-01-11T21:31:31.073Z,65.38
2023-01-11T21:33:59.177Z,66.79
2023-01-11T21:36:28.369Z,66.46
2023-01-11T21:38:56.853Z,66.47
2023-01-11T21:41:45.399Z,65.83
2023-01-11T21:44:13.695Z,66.28
2023-01-11T21:46:41.634Z,67.13
2023-01-11T21:49:09.332Z,67.81
2023-01-11T21:51:38.396Z,67.31
2023-01-11T21:54:07.665Z,67.69
2023-01-11T21:56:35.296Z,68.43
2023-01-11T21:59:02.741Z,69.26
2023-01-11T22:01:30.221Z,66.39
2023-01-11T22:03:57.840Z,65.92
2023-01-11T22:06:25.204Z,67.70
2023-01-11T22:08:52.947Z,66.87
2023-01-11T22:11:20.307Z,68.04
2023-01-11T22:13:47.591Z,68.40
2023-01-11T22:16:17.529Z,68.84
2023-01-11T22:18:45.694Z,67.61
2023-01-11T22:21:15.448Z,68.93
2023-01-11T22:23:42.936Z,67.23
2023-01-11T22:26:12.861Z,67.43
2023-01-11T22:28:59.302Z,67.97
2023-01-11T22:31:28.222Z,68.13
2023-01-11T22:33:55.732Z,68.97
2023-01-11T22:36:24.368Z,69.01
2023-01-11T22:38:52.076Z,68.41
2023-01-11T22:41:19.865Z,69.47
2023-01-11T22:43:47.384Z,68.38
2023-01-11T22:46:17.573Z,69.06
2023-01-11T22:48:46.860Z,68.91
2023-01-11T22:51:15.884Z,68.63
2023-01-11T22:53:44.930Z,68.68
2023-01-11T22:56:13.459Z,67.42
2023-01-11T22:58:41.057Z,68.72
2023-01-11T23:01:17.014Z,68.70
2023-01-11T23:03:47.631Z,67.97
2023-01-11T23:06:20.779Z,68.95
2023-01-11T23:08:48.389Z,68.36
2023-01-11T23:11:36.501Z,68.79
2023-01-11T23:14:04.966Z,68.64
2023-01-11T23:16:32.994Z,68.58
2023-01-11T23:19:00.886Z,68.22
2023-01-11T23:21:28.639Z,69.05
2023-01-11T23:23:56.051Z,69.50
2023-01-11T23:26:23.440Z,69.08
2023-01-11T23:28:50.927Z,68.92
2023-01-11T23:31:21.425Z,69.04
2023-01-11T23:33:51.116Z,68.68
2023-01-11T23:36:19.447Z,68.90
2023-01-11T23:38:47.132Z,68.75
2023-01-11T23:41:34.888Z,67.89
2023-01-11T23:44:04.440Z,66.97
2023-01-11T23:46:50.488Z,67.63
2023-01-11T23:49:18.016Z,68.50
2023-01-11T23:51:45.530Z,68.11
2023-01-11T23:54:12.880Z,68.74
2023-01-11T23:56:40.498Z,68.54
2023-01-11T23:59:08.078Z,69.31
